Time;durP1;ratioP1;P1;durP2;ratioP2;P2;SDS_P1;SDS_P2;PMS_P1;PMS_P2;Temp;Humidity;BMP_temperature;BMP_pressure;BME280_temperature;BME280_humidity;BME280_pressure;Samples;Min_cycle;Max_cycle;Signal;HPM_P1;HPM_P2
2022/01/03 00:01:36;;;;;;;115.85;31.42;;;;;;;;;;5074093;28;20024;-85
2022/01/03 00:04:03;;;;;;;72.75;27.40;;;;;;;;;;5072310;28;20025;-85
2022/01/03 00:06:29;;;;;;;69.32;23.15;;;;;;;;;;5074351;28;20016;-85
2022/01/03 00:08:56;;;;;;;97.70;25.33;;;;;;;;;;5073265;28;20111;-84
2022/01/03 00:11:23;;;;;;;92.97;26.00;;;;;;;;;;5073484;28;20027;-84
2022/01/03 00:13:50;;;;;;;78.70;23.92;;;;;;;;;;5073704;28;20028;-85
2022/01/03 00:16:16;;;;;;;66.30;26.55;;;;;;;;;;5074125;28;20380;-83
2022/01/03 00:18:43;;;;;;;79.60;21.25;;;;;;;;;;5072097;28;20389;-82
2022/01/03 00:21:11;;;;;;;57.55;19.35;;;;;;;;;;5073729;28;20377;-79
2022/01/03 00:23:38;;;;;;;52.33;20.50;;;;;;;;;;5072237;28;20046;-84
2022/01/03 00:26:07;;;;;;;58.45;19.90;;;;;;;;;;5072095;28;20468;-82
2022/01/03 00:28:39;;;;;;;52.03;17.10;;;;;;;;;;5073729;28;20104;-84
2022/01/03 00:31:06;;;;;;;57.22;16.45;;;;;;;;;;5071864;28;20033;-84
2022/01/03 00:33:33;;;;;;;59.38;19.48;;;;;;;;;;5073124;28;20025;-84
2022/01/03 00:36:01;;;;;;;73.47;21.77;;;;;;;;;;5073138;28;20037;-83
2022/01/03 00:38:28;;;;;;;80.97;21.27;;;;;;;;;;5073081;28;20029;-84
2022/01/03 00:40:55;;;;;;;44.63;20.20;;;;;;;;;;5071865;28;20036;-84
2022/01/03 00:43:21;;;;;;;39.42;21.00;;;;;;;;;;5084541;28;20047;-82
2022/01/03 00:45:51;;;;;;;46.17;21.42;;;;;;;;;;5075787;28;20036;-76
2022/01/03 00:48:17;;;;;;;32.60;18.10;;;;;;;;;;5094043;28;20024;-84
2022/01/03 00:50:43;;;;;;;35.92;19.05;;;;;;;;;;5074958;28;20077;-75
2022/01/03 00:53:09;;;;;;;33.60;17.95;;;;;;;;;;5074935;28;20025;-83
2022/01/03 00:55:35;;;;;;;36.38;19.67;;;;;;;;;;5074950;28;20059;-84
2022/01/03 00:58:08;;;;;;;46.08;23.88;;;;;;;;;;5074994;28;20020;-84
2022/01/03 01:00:36;;;;;;;47.95;23.17;;;;;;;;;;5074953;28;20035;-84
2022/01/03 01:03:14;;;;;;;42.75;22.05;;;;;;;;;;5074922;28;20020;-84
2022/01/03 01:05:42;;;;;;;45.20;23.35;;;;;;;;;;5074839;28;20055;-84
2022/01/03 01:08:08;;;;;;;45.53;23.13;;;;;;;;;;5074806;28;20127;-75
2022/01/03 01:10:36;;;;;;;78.22;22.33;;;;;;;;;;5074805;28;20024;-83
2022/01/03 01:13:04;;;;;;;69.72;22.63;;;;;;;;;;5093726;28;20024;-84
2022/01/03 01:15:30;;;;;;;49.97;23.50;;;;;;;;;;5074660;28;20039;-84
2022/01/03 01:17:57;;;;;;;108.47;28.90;;;;;;;;;;5092930;28;20027;-84
2022/01/03 01:20:24;;;;;;;90.18;24.17;;;;;;;;;;5076259;28;20085;-85
2022/01/03 01:22:51;;;;;;;65.95;22.08;;;;;;;;;;5078472;28;20059;-85
2022/01/03 01:27:49;;;;;;;90.28;29.60;;;;;;;;;;5096608;28;20037;-85
2022/01/03 01:30:15;;;;;;;84.70;25.05;;;;;;;;;;5078441;28;20020;-77
2022/01/03 01:32:43;;;;;;;130.82;25.20;;;;;;;;;;5078374;28;20028;-84
2022/01/03 01:35:10;;;;;;;115.97;24.55;;;;;;;;;;5083257;28;20043;-75
2022/01/03 01:37:37;;;;;;;170.27;28.23;;;;;;;;;;5096538;28;20026;-76
2022/01/03 01:40:03;;;;;;;222.40;31.63;;;;;;;;;;5085590;28;20032;-85
2022/01/03 01:42:31;;;;;;;116.38;21.45;;;;;;;;;;5074517;28;20041;-75
2022/01/03 01:45:01;;;;;;;151.40;23.67;;;;;;;;;;5074580;28;20115;-85
2022/01/03 01:47:28;;;;;;;134.18;25.25;;;;;;;;;;5074643;28;20024;-82
2022/01/03 01:49:54;;;;;;;109.85;24.83;;;;;;;;;;5074552;28;20032;-85
2022/01/03 01:52:22;;;;;;;141.90;25.27;;;;;;;;;;5074575;28;20031;-85
2022/01/03 01:54:56;;;;;;;101.82;25.23;;;;;;;;;;5074414;28;20040;-84
2022/01/03 01:57:22;;;;;;;;;;;;;;;;;;5076202;28;20086;-85
2022/01/03 02:00:07;;;;;;;103.35;19.45;;;;;;;;;;5074341;28;20350;-83
2022/01/03 02:02:53;;;;;;;54.47;22.23;;;;;;;;;;5074284;28;20489;-82
2022/01/03 02:05:34;;;;;;;38.22;20.67;;;;;;;;;;5074178;28;20029;-85
2022/01/03 02:08:17;;;;;;;38.75;21.23;;;;;;;;;;5074334;28;20028;-84
2022/01/03 02:11:01;;;;;;;35.45;20.38;;;;;;;;;;5074116;28;20123;-86
2022/01/03 02:13:28;;;;;;;36.78;20.10;;;;;;;;;;5074077;28;20024;-84
2022/01/03 02:16:05;;;;;;;35.67;20.83;;;;;;;;;;5073982;28;20036;-85
2022/01/03 02:18:32;;;;;;;33.00;18.08;;;;;;;;;;5074201;28;20029;-84
2022/01/03 02:20:59;;;;;;;39.25;21.65;;;;;;;;;;5073893;28;20033;-78
2022/01/03 02:23:25;;;;;;;33.03;18.55;;;;;;;;;;5075649;28;20025;-75
2022/01/03 02:25:51;;;;;;;36.75;19.30;;;;;;;;;;5075118;28;20418;-75
2022/01/03 02:28:22;;;;;;;33.53;19.60;;;;;;;;;;5075043;28;20075;-75
2022/01/03 02:30:48;;;;;;;33.83;18.20;;;;;;;;;;5074123;28;20048;-85
2022/01/03 02:33:15;;;;;;;28.40;16.80;;;;;;;;;;5073662;28;20059;-85
2022/01/03 02:35:42;;;;;;;34.85;19.40;;;;;;;;;;5074791;28;20116;-85
2022/01/03 02:38:08;;;;;;;33.25;19.63;;;;;;;;;;5074845;28;20029;-82
2022/01/03 02:40:35;;;;;;;40.17;20.90;;;;;;;;;;5073357;28;20024;-83
2022/01/03 02:43:01;;;;;;;38.70;21.85;;;;;;;;;;5073216;28;20088;-85
2022/01/03 02:45:27;;;;;;;43.92;23.48;;;;;;;;;;5073443;28;20024;-85
2022/01/03 02:47:58;;;;;;;34.63;18.05;;;;;;;;;;5073301;28;20107;-85
2022/01/03 02:50:25;;;;;;;32.25;18.10;;;;;;;;;;5074522;28;20025;-82
2022/01/03 02:52:51;;;;;;;29.92;17.20;;;;;;;;;;5073102;28;20027;-84
2022/01/03 02:55:18;;;;;;;40.17;21.75;;;;;;;;;;5074405;28;20033;-83
2022/01/03 02:57:48;;;;;;;32.38;17.67;;;;;;;;;;5073148;28;20024;-77
2022/01/03 03:00:16;;;;;;;41.65;23.05;;;;;;;;;;5075035;28;20032;-84
2022/01/03 03:02:43;;;;;;;43.45;21.73;;;;;;;;;;5073085;28;20449;-84
2022/01/03 03:05:10;;;;;;;38.13;21.15;;;;;;;;;;5074767;28;20029;-84
2022/01/03 03:07:37;;;;;;;41.05;21.75;;;;;;;;;;5072944;28;20448;-85
2022/01/03 03:10:11;;;;;;;40.88;23.38;;;;;;;;;;5074082;28;20031;-84
2022/01/03 03:12:38;;;;;;;38.97;23.23;;;;;;;;;;5072916;28;20025;-84
2022/01/03 03:15:05;;;;;;;39.80;19.92;;;;;;;;;;5072718;28;20037;-85
2022/01/03 03:17:31;;;;;;;36.38;20.67;;;;;;;;;;5074082;28;20021;-84
2022/01/03 03:19:59;;;;;;;34.20;18.90;;;;;;;;;;5074111;28;20031;-84
2022/01/03 03:22:26;;;;;;;37.15;21.40;;;;;;;;;;5072687;28;20358;-84
2022/01/03 03:24:59;;;;;;;34.10;18.50;;;;;;;;;;5072696;28;20388;-84
2022/01/03 03:27:26;;;;;;;32.50;17.48;;;;;;;;;;5074494;28;20048;-78
2022/01/03 03:29:52;;;;;;;37.55;21.23;;;;;;;;;;5073805;28;20028;-82
2022/01/03 03:32:19;;;;;;;34.17;18.05;;;;;;;;;;5072414;28;20107;-77
2022/01/03 03:34:48;;;;;;;35.20;19.75;;;;;;;;;;5073820;28;20037;-83
2022/01/03 03:37:15;;;;;;;40.25;21.73;;;;;;;;;;5072402;28;20385;-84
2022/01/03 03:39:43;;;;;;;39.58;20.65;;;;;;;;;;5074505;28;20594;-83
2022/01/03 03:42:10;;;;;;;36.95;18.27;;;;;;;;;;5075556;28;20056;-84
2022/01/03 03:44:36;;;;;;;37.03;19.95;;;;;;;;;;5075819;28;20036;-83
2022/01/03 03:47:03;;;;;;;32.22;17.98;;;;;;;;;;5085166;28;20028;-82
2022/01/03 03:49:29;;;;;;;36.03;19.35;;;;;;;;;;5108173;28;20035;-75
2022/01/03 03:51:56;;;;;;;40.33;21.88;;;;;;;;;;5075791;28;20032;-84
2022/01/03 03:54:22;;;;;;;33.10;18.33;;;;;;;;;;5075530;28;20538;-84
2022/01/03 03:56:48;;;;;;;35.95;18.02;;;;;;;;;;5075558;28;20499;-82
2022/01/03 03:59:14;;;;;;;32.63;18.60;;;;;;;;;;5075629;28;20388;-84
2022/01/03 04:01:41;;;;;;;30.13;17.85;;;;;;;;;;5094104;28;20085;-77
2022/01/03 04:04:07;;;;;;;36.03;18.02;;;;;;;;;;5075417;28;20024;-81
2022/01/03 04:06:34;;;;;;;35.67;17.75;;;;;;;;;;5075504;28;20119;-84
2022/01/03 04:09:00;;;;;;;35.08;19.80;;;;;;;;;;5094037;28;20032;-80
2022/01/03 04:11:26;;;;;;;32.78;16.83;;;;;;;;;;5094104;28;20035;-83
2022/01/03 04:13:53;;;;;;;36.55;19.88;;;;;;;;;;5075412;28;20028;-84
2022/01/03 04:16:20;;;;;;;27.30;16.63;;;;;;;;;;5093443;28;20059;-75
2022/01/03 04:18:46;;;;;;;31.95;14.90;;;;;;;;;;5075422;28;20119;-83
2022/01/03 04:21:12;;;;;;;28.08;16.02;;;;;;;;;;5075278;28;20028;-76
2022/01/03 04:23:38;;;;;;;32.42;17.88;;;;;;;;;;5094050;28;20028;-75
2022/01/03 04:26:05;;;;;;;26.75;14.75;;;;;;;;;;5093355;28;20027;-76
2022/01/03 04:28:31;;;;;;;26.65;15.05;;;;;;;;;;5093935;28;20059;-75
2022/01/03 04:30:57;;;;;;;28.10;15.65;;;;;;;;;;5093307;28;20024;-82
2022/01/03 04:33:24;;;;;;;27.60;15.18;;;;;;;;;;5093314;28;20111;-74
2022/01/03 04:35:50;;;;;;;24.70;14.60;;;;;;;;;;5093270;28;20438;-83
2022/01/03 04:38:18;;;;;;;25.30;13.38;;;;;;;;;;5093931;28;20380;-84
2022/01/03 04:40:44;;;;;;;23.95;13.95;;;;;;;;;;5075244;28;20396;-84
2022/01/03 04:43:10;;;;;;;26.35;14.98;;;;;;;;;;5092960;28;20055;-84
2022/01/03 04:45:37;;;;;;;24.15;13.13;;;;;;;;;;5075219;28;20503;-84
2022/01/03 04:48:03;;;;;;;20.90;11.75;;;;;;;;;;5075053;28;20024;-84
2022/01/03 04:50:30;;;;;;;24.88;13.00;;;;;;;;;;5075057;28;20039;-83
2022/01/03 04:52:56;;;;;;;22.60;13.20;;;;;;;;;;5075046;28;20066;-83
2022/01/03 04:55:22;;;;;;;24.23;12.35;;;;;;;;;;5078126;28;20062;-84
2022/01/03 04:57:50;;;;;;;20.55;12.02;;;;;;;;;;5078793;28;20024;-81
2022/01/03 05:00:17;;;;;;;22.65;10.82;;;;;;;;;;5078864;28;20469;-84
2022/01/03 05:02:43;;;;;;;22.17;10.98;;;;;;;;;;5078610;28;20423;-78
2022/01/03 05:05:11;;;;;;;20.13;11.00;;;;;;;;;;5097436;28;20031;-78
2022/01/03 05:07:38;;;;;;;24.35;11.70;;;;;;;;;;5078628;28;20431;-84
2022/01/03 05:10:04;;;;;;;21.30;10.57;;;;;;;;;;5096807;28;20024;-84
2022/01/03 05:12:30;;;;;;;22.73;11.23;;;;;;;;;;5078626;28;20020;-83
2022/01/03 05:14:57;;;;;;;20.50;11.20;;;;;;;;;;5078431;28;20062;-83
2022/01/03 05:17:23;;;;;;;19.05;10.90;;;;;;;;;;5096630;28;20071;-80
2022/01/03 05:19:49;;;;;;;16.80;9.30;;;;;;;;;;5078456;28;20119;-83
2022/01/03 05:22:16;;;;;;;16.00;8.30;;;;;;;;;;5078372;28;20024;-82
2022/01/03 05:24:42;;;;;;;8.93;4.13;;;;;;;;;;5078285;28;20130;-83
2022/01/03 05:27:08;;;;;;;5.38;2.90;;;;;;;;;;5078303;28;20036;-83
2022/01/03 05:29:34;;;;;;;5.38;2.40;;;;;;;;;;5096433;28;20051;-83
2022/01/03 05:32:01;;;;;;;4.72;2.13;;;;;;;;;;5096302;28;20024;-83
2022/01/03 05:34:27;;;;;;;6.20;1.90;;;;;;;;;;5078108;28;20051;-83
2022/01/03 05:36:53;;;;;;;5.78;1.70;;;;;;;;;;5078174;28;20069;-75
2022/01/03 05:39:20;;;;;;;4.88;1.67;;;;;;;;;;5077994;28;20020;-83
2022/01/03 05:41:46;;;;;;;5.15;1.85;;;;;;;;;;5096190;28;20419;-84
2022/01/03 05:44:12;;;;;;;4.32;1.90;;;;;;;;;;5077933;28;20067;-75
2022/01/03 05:46:39;;;;;;;4.72;1.80;;;;;;;;;;5077854;28;20043;-79
2022/01/03 05:49:07;;;;;;;2.15;1.10;;;;;;;;;;5096622;28;20361;-84
2022/01/03 05:51:33;;;;;;;9.35;1.70;;;;;;;;;;5077841;28;20031;-83
2022/01/03 05:53:59;;;;;;;9.05;1.40;;;;;;;;;;5077804;28;20028;-84
2022/01/03 05:56:25;;;;;;;2.22;1.23;;;;;;;;;;5077718;28;20035;-84
2022/01/03 05:58:52;;;;;;;2.65;1.02;;;;;;;;;;5099619;28;20032;-75
2022/01/03 06:01:23;;;;;;;4.63;1.38;;;;;;;;;;5082006;28;20032;-75
2022/01/03 06:03:58;;;;;;;3.15;1.13;;;;;;;;;;5077604;28;20027;-84
2022/01/03 06:06:53;;;;;;;4.90;1.15;;;;;;;;;;5076856;28;20111;-84
2022/01/03 06:09:17;;;;;;;7.43;1.30;;;;;;;;;;5095555;28;20439;-83
2022/01/03 06:11:43;;;;;;;2.92;1.23;;;;;;;;;;5077540;28;20027;-86
2022/01/03 06:14:10;;;;;;;2.25;0.82;;;;;;;;;;5078220;28;20388;-84
2022/01/03 06:16:36;;;;;;;1.67;0.77;;;;;;;;;;5077566;28;20108;-85
2022/01/03 06:19:03;;;;;;;1.85;0.80;;;;;;;;;;5077344;28;20476;-75
2022/01/03 06:21:29;;;;;;;1.10;0.47;;;;;;;;;;5077313;28;20028;-84
2022/01/03 06:23:55;;;;;;;3.15;1.08;;;;;;;;;;5077386;28;20035;-84
2022/01/03 06:26:21;;;;;;;3.80;0.80;;;;;;;;;;5077241;28;20020;-81
2022/01/03 06:28:47;;;;;;;2.15;0.98;;;;;;;;;;5095232;28;20430;-84
2022/01/03 06:31:13;;;;;;;2.10;0.90;;;;;;;;;;5095730;28;20024;-84
2022/01/03 06:33:40;;;;;;;2.90;0.85;;;;;;;;;;5077089;28;20218;-83
2022/01/03 06:36:07;;;;;;;1.00;0.47;;;;;;;;;;5095104;28;20097;-83
2022/01/03 06:38:33;;;;;;;3.00;0.60;;;;;;;;;;5077442;28;20491;-85
2022/01/03 06:40:59;;;;;;;1.67;0.60;;;;;;;;;;5077027;28;20032;-84
2022/01/03 06:43:25;;;;;;;2.15;0.70;;;;;;;;;;5077035;28;20100;-84
2022/01/03 06:45:51;;;;;;;2.92;0.70;;;;;;;;;;5077259;28;20032;-85
2022/01/03 06:48:17;;;;;;;1.73;0.60;;;;;;;;;;5077012;28;20016;-84
2022/01/03 06:50:43;;;;;;;7.68;0.80;;;;;;;;;;5095296;28;20032;-82
2022/01/03 06:53:12;;;;;;;2.75;0.88;;;;;;;;;;5093357;28;20024;-79
2022/01/03 06:55:39;;;;;;;2.15;0.68;;;;;;;;;;5095340;28;20036;-78
2022/01/03 06:58:05;;;;;;;1.55;0.65;;;;;;;;;;5093255;28;20058;-78
2022/01/03 07:00:31;;;;;;;2.80;0.70;;;;;;;;;;5082618;28;20032;-78
2022/01/03 07:02:58;;;;;;;2.95;0.50;;;;;;;;;;5076185;28;20138;-77
2022/01/03 07:05:24;;;;;;;1.95;0.73;;;;;;;;;;5076126;28;20384;-78
2022/01/03 07:07:50;;;;;;;1.48;0.63;;;;;;;;;;5075957;28;20020;-78
2022/01/03 07:10:18;;;;;;;5.75;0.88;;;;;;;;;;5076236;28;20396;-79
2022/01/03 07:12:44;;;;;;;3.13;0.75;;;;;;;;;;5075978;28;20024;-79
2022/01/03 07:20:40;;;;;;;2.42;0.55;;;;;;;;;;5094282;28;20035;-78
2022/01/03 07:23:07;;;;;;;2.90;0.57;;;;;;;;;;5075728;28;20102;-79
2022/01/03 07:25:33;;;;;;;2.25;0.82;;;;;;;;;;5075866;28;20036;-79
2022/01/03 07:27:59;;;;;;;1.40;0.63;;;;;;;;;;5075878;28;20035;-79
2022/01/03 07:30:25;;;;;;;4.25;0.85;;;;;;;;;;5093975;28;20020;-79
2022/01/03 07:32:51;;;;;;;5.07;1.08;;;;;;;;;;5075701;28;20023;-78
2022/01/03 07:35:17;;;;;;;4.97;1.05;;;;;;;;;;5093684;28;20119;-78
2022/01/03 07:37:43;;;;;;;2.78;0.80;;;;;;;;;;5075700;28;20039;-78
2022/01/03 07:40:10;;;;;;;3.67;0.73;;;;;;;;;;5075670;28;20453;-77
2022/01/03 07:42:36;;;;;;;2.10;0.50;;;;;;;;;;5075473;28;20121;-79
2022/01/03 07:45:02;;;;;;;1.27;0.47;;;;;;;;;;5075550;28;20028;-78
2022/01/03 07:47:30;;;;;;;2.05;0.65;;;;;;;;;;5075654;28;20458;-79
2022/01/03 07:49:56;;;;;;;2.17;0.28;;;;;;;;;;5075428;28;20028;-78
2022/01/03 07:52:22;;;;;;;0.50;0.17;;;;;;;;;;5075523;28;20020;-78
2022/01/03 07:54:51;;;;;;;0.45;0.20;;;;;;;;;;5075306;28;20396;-78
2022/01/03 07:57:18;;;;;;;4.05;0.50;;;;;;;;;;5075335;28;20465;-75
2022/01/03 07:59:47;;;;;;;1.13;0.28;;;;;;;;;;5093294;28;20032;-78
2022/01/03 08:02:14;;;;;;;0.50;0.30;;;;;;;;;;5093536;28;20024;-78
2022/01/03 08:04:40;;;;;;;2.08;0.30;;;;;;;;;;5093549;28;20028;-77
2022/01/03 08:07:06;;;;;;;2.85;0.30;;;;;;;;;;5093307;28;20104;-77
2022/01/03 08:09:32;;;;;;;0.93;0.32;;;;;;;;;;5093385;28;20107;-76
2022/01/03 08:12:00;;;;;;;1.15;0.30;;;;;;;;;;5093673;28;20533;-74
2022/01/03 08:14:26;;;;;;;0.43;0.13;;;;;;;;;;5075206;28;20072;-73
2022/01/03 08:16:52;;;;;;;2.50;0.20;;;;;;;;;;5093283;28;20032;-77
2022/01/03 08:19:26;;;;;;;2.10;0.20;;;;;;;;;;5075227;28;20170;-77
2022/01/03 08:21:52;;;;;;;0.25;0.10;;;;;;;;;;5093747;28;20028;-78
2022/01/03 08:24:18;;;;;;;0.45;0.20;;;;;;;;;;5075047;28;20115;-80
2022/01/03 08:26:44;;;;;;;1.23;0.40;;;;;;;;;;5075097;28;20110;-78
2022/01/03 08:29:11;;;;;;;0.60;0.30;;;;;;;;;;5076339;28;20119;-78
2022/01/03 08:31:37;;;;;;;0.90;0.38;;;;;;;;;;5097348;28;20101;-77
2022/01/03 08:34:04;;;;;;;1.10;0.30;;;;;;;;;;5079099;28;20035;-78
2022/01/03 08:36:30;;;;;;;1.75;0.30;;;;;;;;;;5097273;28;20123;-77
2022/01/03 08:38:56;;;;;;;2.83;0.35;;;;;;;;;;5078918;28;20024;-78
2022/01/03 08:41:22;;;;;;;0.57;0.20;;;;;;;;;;5097536;28;20023;-76
2022/01/03 08:43:49;;;;;;;1.02;0.20;;;;;;;;;;5078994;28;20060;-80
2022/01/03 08:46:15;;;;;;;0.47;0.20;;;;;;;;;;5078847;28;20035;-82
2022/01/03 08:48:41;;;;;;;0.95;0.20;;;;;;;;;;5078714;28;20029;-81
2022/01/03 08:51:07;;;;;;;1.52;0.20;;;;;;;;;;5078593;28;20027;-78
2022/01/03 08:53:34;;;;;;;0.40;0.10;;;;;;;;;;5097070;28;20490;-81
2022/01/03 08:56:00;;;;;;;0.80;0.20;;;;;;;;;;5078662;28;20059;-81
2022/01/03 08:58:26;;;;;;;4.53;0.60;;;;;;;;;;5096849;28;20059;-78
2022/01/03 09:00:53;;;;;;;0.38;0.10;;;;;;;;;;5078455;28;20362;-81
2022/01/03 09:03:19;;;;;;;4.28;0.57;;;;;;;;;;5096736;28;20024;-81
2022/01/03 09:05:45;;;;;;;1.25;0.35;;;;;;;;;;5096741;28;20453;-81
2022/01/03 09:08:12;;;;;;;0.68;0.25;;;;;;;;;;5096663;28;20495;-74
2022/01/03 09:10:39;;;;;;;0.30;0.20;;;;;;;;;;5096661;28;20028;-79
2022/01/03 09:13:05;;;;;;;0.47;0.10;;;;;;;;;;5096765;28;20016;-79
2022/01/03 09:15:31;;;;;;;1.00;0.28;;;;;;;;;;5078312;28;20489;-79
2022/01/03 09:17:58;;;;;;;3.25;0.30;;;;;;;;;;5096756;28;20495;-79
2022/01/03 09:20:24;;;;;;;1.17;0.35;;;;;;;;;;5078316;28;20028;-80
2022/01/03 09:22:54;;;;;;;1.95;0.30;;;;;;;;;;5078198;28;20480;-80
2022/01/03 09:30:47;;;;;;;0.50;0.30;;;;;;;;;;5096457;28;20031;-79
2022/01/03 09:33:13;;;;;;;0.45;0.25;;;;;;;;;;5078150;28;20499;-80
2022/01/03 09:35:40;;;;;;;1.05;0.40;;;;;;;;;;5078379;28;20039;-83
2022/01/03 09:38:06;;;;;;;0.90;0.43;;;;;;;;;;5077953;28;20027;-78
2022/01/03 09:40:34;;;;;;;1.05;0.40;;;;;;;;;;5094863;28;20137;-79
2022/01/03 09:43:01;;;;;;;0.40;0.10;;;;;;;;;;5074164;28;20040;-79
2022/01/03 09:45:28;;;;;;;1.27;0.28;;;;;;;;;;5074453;28;20032;-79
2022/01/03 09:47:55;;;;;;;1.30;0.30;;;;;;;;;;5075611;28;20107;-79
2022/01/03 09:50:22;;;;;;;4.35;0.60;;;;;;;;;;5075816;28;20090;-79
2022/01/03 09:52:49;;;;;;;5.35;0.70;;;;;;;;;;5075618;28;20067;-79
2022/01/03 09:55:16;;;;;;;1.95;0.50;;;;;;;;;;5074233;28;20440;-81
2022/01/03 09:57:44;;;;;;;1.75;0.30;;;;;;;;;;5075537;28;20037;-77
2022/01/03 10:00:11;;;;;;;0.55;0.20;;;;;;;;;;5074222;28;20032;-80
2022/01/03 10:02:38;;;;;;;0.82;0.30;;;;;;;;;;5074203;28;20020;-79
2022/01/03 10:05:05;;;;;;;1.60;0.30;;;;;;;;;;5075356;28;20035;-80
2022/01/03 10:07:33;;;;;;;2.47;0.43;;;;;;;;;;5075955;28;20101;-82
2022/01/03 10:10:00;;;;;;;1.27;0.30;;;;;;;;;;5075608;28;20118;-77
2022/01/03 10:12:26;;;;;;;2.55;0.30;;;;;;;;;;5073938;28;20048;-77
2022/01/03 10:14:52;;;;;;;1.23;0.20;;;;;;;;;;5074850;28;20103;-77
2022/01/03 10:17:18;;;;;;;0.63;0.30;;;;;;;;;;5073779;28;20489;-76
2022/01/03 10:19:58;;;;;;;0.60;0.30;;;;;;;;;;5073794;28;20028;-78
2022/01/03 10:22:26;;;;;;;0.45;0.20;;;;;;;;;;5073530;28;20050;-81
2022/01/03 10:24:52;;;;;;;1.40;0.30;;;;;;;;;;5073533;28;20025;-80
2022/01/03 10:27:19;;;;;;;1.85;0.30;;;;;;;;;;5073871;28;20033;-81
2022/01/03 10:29:55;;;;;;;0.77;0.20;;;;;;;;;;5073795;28;20028;-80
2022/01/03 10:32:27;;;;;;;0.35;0.17;;;;;;;;;;5073684;28;20024;-81
2022/01/03 10:34:54;;;;;;;0.82;0.25;;;;;;;;;;5073530;28;20366;-80
2022/01/03 10:37:33;;;;;;;1.17;0.40;;;;;;;;;;5073430;28;20476;-80
2022/01/03 10:39:59;;;;;;;0.80;0.38;;;;;;;;;;5073685;28;20388;-81
2022/01/03 10:42:25;;;;;;;0.73;0.40;;;;;;;;;;5072923;28;20044;-81
2022/01/03 10:44:51;;;;;;;1.75;0.40;;;;;;;;;;5073522;28;20119;-80
2022/01/03 10:47:31;;;;;;;1.15;0.30;;;;;;;;;;5073439;28;20107;-80
2022/01/03 10:49:57;;;;;;;2.08;0.20;;;;;;;;;;5073412;28;20436;-82
2022/01/03 10:52:28;;;;;;;1.58;0.20;;;;;;;;;;5072966;28;20021;-80
2022/01/03 10:55:11;;;;;;;0.50;0.20;;;;;;;;;;5072966;28;20037;-80
2022/01/03 10:57:37;;;;;;;;;;;;;;;;;;5073705;28;20039;-80
2022/01/03 11:00:13;;;;;;;0.55;0.15;;;;;;;;;;5073553;28;19905;-81
2022/01/03 11:02:39;;;;;;;0.65;0.25;;;;;;;;;;5073116;28;20085;-80
2022/01/03 11:05:11;;;;;;;1.85;0.30;;;;;;;;;;5074050;28;20024;-80
2022/01/03 11:10:51;;;;;;;1.33;0.40;;;;;;;;;;5074316;28;20031;-79
2022/01/03 11:13:04;;;;;;;0.47;0.20;;;;;;;;;;5066313;28;20033;-77
2022/01/03 11:15:30;;;;;;;0.70;0.20;;;;;;;;;;5072568;28;20135;-78
2022/01/03 11:18:12;;;;;;;4.05;0.20;;;;;;;;;;5072687;28;20028;-79
2022/01/03 11:20:38;;;;;;;0.50;0.20;;;;;;;;;;5074109;28;20077;-80
2022/01/03 11:23:04;;;;;;;2.15;0.30;;;;;;;;;;5073786;28;20093;-79
2022/01/03 11:25:31;;;;;;;1.80;0.52;;;;;;;;;;5072820;28;20159;-80
2022/01/03 11:27:57;;;;;;;1.27;0.35;;;;;;;;;;5072218;28;20484;-80
2022/01/03 11:30:25;;;;;;;1.05;0.20;;;;;;;;;;5072559;28;20033;-80
2022/01/03 11:32:51;;;;;;;1.20;0.38;;;;;;;;;;5073789;28;20020;-81
2022/01/03 11:35:17;;;;;;;0.73;0.20;;;;;;;;;;5072336;28;20021;-80
2022/01/03 11:37:45;;;;;;;4.68;0.13;;;;;;;;;;5072450;28;20039;-80
2022/01/03 11:40:12;;;;;;;2.05;0.20;;;;;;;;;;5072386;28;20469;-80
2022/01/03 11:42:39;;;;;;;0.68;0.22;;;;;;;;;;5072374;28;20052;-79
2022/01/03 11:45:05;;;;;;;0.50;0.20;;;;;;;;;;5072172;28;20135;-80
2022/01/03 11:47:32;;;;;;;1.95;0.38;;;;;;;;;;5072283;28;20056;-79
2022/01/03 11:49:58;;;;;;;2.25;0.65;;;;;;;;;;5072126;28;20032;-81
2022/01/03 11:52:24;;;;;;;0.82;0.20;;;;;;;;;;5072263;28;20078;-79
2022/01/03 11:54:53;;;;;;;2.17;0.47;;;;;;;;;;5073444;28;20029;-79
2022/01/03 12:05:54;;;;;;;1.15;0.20;;;;;;;;;;5073508;28;20040;-79
2022/01/03 12:08:30;;;;;;;0.60;0.20;;;;;;;;;;5072032;28;20025;-80
2022/01/03 12:11:00;;;;;;;2.60;0.30;;;;;;;;;;5072370;28;20035;-79
2022/01/03 12:13:45;;;;;;;1.65;0.45;;;;;;;;;;5072303;28;20017;-79
2022/01/03 12:16:12;;;;;;;0.60;0.20;;;;;;;;;;5073382;28;20040;-77
2022/01/03 12:18:39;;;;;;;1.35;0.40;;;;;;;;;;5071975;28;20392;-78
2022/01/03 12:21:05;;;;;;;2.47;0.28;;;;;;;;;;5071871;28;20025;-78
2022/01/03 12:23:39;;;;;;;0.75;0.20;;;;;;;;;;5071987;28;20536;-80
2022/01/03 12:26:18;;;;;;;1.30;0.30;;;;;;;;;;5071848;28;20059;-77
2022/01/03 12:29:02;;;;;;;3.83;0.40;;;;;;;;;;5071852;28;20384;-83
2022/01/03 12:31:48;;;;;;;1.52;0.30;;;;;;;;;;5071916;28;20115;-78
2022/01/03 12:34:18;;;;;;;1.30;0.30;;;;;;;;;;5071770;28;20166;-81
2022/01/03 12:37:04;;;;;;;1.58;0.40;;;;;;;;;;5071902;28;20472;-81
2022/01/03 12:39:30;;;;;;;1.95;0.45;;;;;;;;;;5071887;28;20473;-81
2022/01/03 12:41:56;;;;;;;3.28;0.43;;;;;;;;;;5073579;28;20036;-79
2022/01/03 12:44:46;;;;;;;3.17;0.85;;;;;;;;;;5092786;28;20052;-80
2022/01/03 12:47:15;;;;;;;0.57;0.30;;;;;;;;;;5083180;28;20177;-79
2022/01/03 12:49:41;;;;;;;2.33;0.57;;;;;;;;;;5075195;28;20028;-78
2022/01/03 12:52:15;;;;;;;7.28;0.60;;;;;;;;;;5075029;28;20031;-78
2022/01/03 12:54:42;;;;;;;2.92;0.32;;;;;;;;;;5074938;28;20436;-80
2022/01/03 12:57:12;;;;;;;0.22;0.08;;;;;;;;;;5074952;28;20027;-79
2022/01/03 12:59:38;;;;;;;1.55;0.22;;;;;;;;;;5074934;28;20035;-77
2022/01/03 13:02:23;;;;;;;1.58;0.35;;;;;;;;;;5074931;28;20078;-77
2022/01/03 13:04:49;;;;;;;1.80;0.80;;;;;;;;;;5074790;28;20028;-79
2022/01/03 13:07:22;;;;;;;1.42;0.50;;;;;;;;;;5074671;28;20031;-78
2022/01/03 13:09:48;;;;;;;2.85;0.40;;;;;;;;;;5074758;28;20032;-82
2022/01/03 13:12:14;;;;;;;0.20;0.10;;;;;;;;;;5074784;28;20052;-80
2022/01/03 13:14:40;;;;;;;2.53;0.30;;;;;;;;;;5075591;28;20434;-82
2022/01/03 13:17:06;;;;;;;2.42;0.55;;;;;;;;;;5078559;28;20047;-81
2022/01/03 13:19:34;;;;;;;3.42;0.43;;;;;;;;;;5096654;28;20379;-80
2022/01/03 13:22:03;;;;;;;2.25;0.40;;;;;;;;;;5078197;28;20034;-77
2022/01/03 13:24:35;;;;;;;3.60;0.73;;;;;;;;;;5078550;28;20062;-79
2022/01/03 13:27:09;;;;;;;2.30;0.40;;;;;;;;;;5096381;28;20085;-79
2022/01/03 13:29:40;;;;;;;0.98;0.35;;;;;;;;;;5078322;28;20038;-78
2022/01/03 13:32:06;;;;;;;3.13;0.50;;;;;;;;;;5078132;28;20108;-78
2022/01/03 13:34:33;;;;;;;0.88;0.30;;;;;;;;;;5077939;28;20036;-79
2022/01/03 13:37:03;;;;;;;1.35;0.47;;;;;;;;;;5077908;28;20060;-78
2022/01/03 13:39:30;;;;;;;4.57;0.60;;;;;;;;;;5077965;28;20093;-77
2022/01/03 13:42:39;;;;;;;2.78;0.25;;;;;;;;;;5078110;28;20551;-78
2022/01/03 13:50:42;;;;;;;6.07;0.65;;;;;;;;;;5096183;28;20116;-78
2022/01/03 13:53:10;;;;;;;1.65;0.32;;;;;;;;;;5095893;28;20024;-80
2022/01/03 13:55:36;;;;;;;2.78;0.50;;;;;;;;;;5077626;28;20472;-79
2022/01/03 13:58:24;;;;;;;2.72;0.52;;;;;;;;;;5095895;28;20023;-76
2022/01/03 14:00:55;;;;;;;3.75;0.98;;;;;;;;;;5077588;28;20032;-78
2022/01/03 14:03:23;;;;;;;4.25;0.47;;;;;;;;;;5077642;28;20028;-80
2022/01/03 14:05:49;;;;;;;1.17;0.40;;;;;;;;;;5077522;28;20075;-79
2022/01/03 14:08:20;;;;;;;3.35;0.50;;;;;;;;;;5077524;28;20139;-80
2022/01/03 14:10:48;;;;;;;1.63;0.65;;;;;;;;;;5077954;28;20077;-77
2022/01/03 14:13:15;;;;;;;2.13;0.35;;;;;;;;;;5077333;28;20030;-77
2022/01/03 14:16:02;;;;;;;1.92;0.40;;;;;;;;;;5077027;28;20581;-78
2022/01/03 14:18:34;;;;;;;2.72;0.40;;;;;;;;;;5067147;28;20032;-78
2022/01/03 14:21:26;;;;;;;1.38;0.40;;;;;;;;;;5077181;28;20119;-78
2022/01/03 14:23:53;;;;;;;3.30;0.55;;;;;;;;;;5074220;28;20031;-78
2022/01/03 14:26:25;;;;;;;1.58;0.40;;;;;;;;;;5094365;28;20028;-77
2022/01/03 14:28:53;;;;;;;4.63;0.70;;;;;;;;;;5094981;28;20157;-77
2022/01/03 14:31:19;;;;;;;1.65;0.50;;;;;;;;;;5076967;28;20035;-79
2022/01/03 14:33:45;;;;;;;2.08;0.60;;;;;;;;;;5095080;28;20028;-79
2022/01/03 14:36:12;;;;;;;4.63;1.60;;;;;;;;;;5095164;28;20057;-80
2022/01/03 14:38:40;;;;;;;4.35;1.30;;;;;;;;;;5095191;28;20035;-84
2022/01/03 14:41:13;;;;;;;3.33;0.90;;;;;;;;;;5077110;28;20032;-79
2022/01/03 14:43:39;;;;;;;2.77;0.90;;;;;;;;;;5094843;28;20060;-79
2022/01/03 14:46:07;;;;;;;1.85;0.52;;;;;;;;;;5095283;28;20262;-78
2022/01/03 14:48:33;;;;;;;1.92;0.40;;;;;;;;;;5095891;28;20024;-82
2022/01/03 14:51:10;;;;;;;2.83;0.50;;;;;;;;;;5095823;28;20070;-78
2022/01/03 14:53:36;;;;;;;2.38;0.60;;;;;;;;;;5076566;28;20024;-79
2022/01/03 14:56:02;;;;;;;1.98;0.80;;;;;;;;;;5076442;28;20127;-81
2022/01/03 14:58:29;;;;;;;1.33;0.35;;;;;;;;;;5076506;28;20020;-79
2022/01/03 15:00:55;;;;;;;2.50;0.50;;;;;;;;;;5076162;28;20055;-78
2022/01/03 15:03:26;;;;;;;1.00;0.30;;;;;;;;;;5076409;28;20020;-80
2022/01/03 15:05:53;;;;;;;2.50;0.30;;;;;;;;;;5076221;28;20549;-79
2022/01/03 15:08:19;;;;;;;2.15;0.40;;;;;;;;;;5094650;28;20059;-78
2022/01/03 15:10:45;;;;;;;1.50;0.43;;;;;;;;;;5094463;28;20051;-77